Aguilares, Texas
Current Conditions -  °F | °C
As of 5:15 PM on Wednesday 22 Oct 2014 (Local Time) from KHBV Reporting Station
Overcast Overcast  
Wind Chill: 83°   Ceiling: 8000
Heat Index: 83°   Visibility: 10mi
Dew Point: 60°   Wind: 7mph
Humidity: 45%   Direction: 90°E
Pressure: 30"   Gusts: NA
Location:  27.4459°N, 99.0184°W
Report Text: KHBV 222215Z AUTO 09006KT 10SM OVC080 28/15 A3000 RMK AO2 T02830153
Loading
Personal Weather Stations






























Interactive Weather Map
Tropical Storm Tracking
New forecast layout! Learn more

10-Day Weather Forecast

Advertisements
Track Severe Weather on mobile